sensor_id;sensor_type;location;lat;lon;timestamp;temperature;humidity
19088;DHT22;9676;50.916;13.352;2023-07-08T00:02:12;21.50;37.50
19088;DHT22;9676;50.916;13.352;2023-07-08T00:05:05;21.50;37.60
19088;DHT22;9676;50.916;13.352;2023-07-08T00:07:56;21.50;37.70
19088;DHT22;9676;50.916;13.352;2023-07-08T00:10:46;21.40;37.60
19088;DHT22;9676;50.916;13.352;2023-07-08T00:13:36;21.40;37.70
19088;DHT22;9676;50.916;13.352;2023-07-08T00:16:27;21.40;37.60
19088;DHT22;9676;50.916;13.352;2023-07-08T00:19:17;21.40;37.60
19088;DHT22;9676;50.916;13.352;2023-07-08T00:22:12;21.40;37.60
19088;DHT22;9676;50.916;13.352;2023-07-08T00:25:02;21.40;37.80
19088;DHT22;9676;50.916;13.352;2023-07-08T00:27:52;21.30;37.50
19088;DHT22;9676;50.916;13.352;2023-07-08T00:30:42;21.30;37.50
19088;DHT22;9676;50.916;13.352;2023-07-08T00:33:33;21.30;37.40
19088;DHT22;9676;50.916;13.352;2023-07-08T00:36:23;21.30;37.60
19088;DHT22;9676;50.916;13.352;2023-07-08T00:39:14;21.30;37.60
19088;DHT22;9676;50.916;13.352;2023-07-08T00:42:09;21.20;37.50
19088;DHT22;9676;50.916;13.352;2023-07-08T00:45:16;21.30;37.60
19088;DHT22;9676;50.916;13.352;2023-07-08T00:48:17;21.30;37.80
19088;DHT22;9676;50.916;13.352;2023-07-08T00:51:12;21.30;37.60
19088;DHT22;9676;50.916;13.352;2023-07-08T00:54:01;21.30;37.50
19088;DHT22;9676;50.916;13.352;2023-07-08T00:56:53;21.20;37.40
19088;DHT22;9676;50.916;13.352;2023-07-08T00:59:49;21.20;37.70
19088;DHT22;9676;50.916;13.352;2023-07-08T01:02:47;21.10;37.60
19088;DHT22;9676;50.916;13.352;2023-07-08T01:05:39;21.10;37.80
19088;DHT22;9676;50.916;13.352;2023-07-08T01:08:30;21.10;37.80
19088;DHT22;9676;50.916;13.352;2023-07-08T01:11:21;21.00;37.70
19088;DHT22;9676;50.916;13.352;2023-07-08T01:14:13;21.00;37.90
19088;DHT22;9676;50.916;13.352;2023-07-08T01:17:07;20.90;38.00
19088;DHT22;9676;50.916;13.352;2023-07-08T01:20:04;20.90;38.10
19088;DHT22;9676;50.916;13.352;2023-07-08T01:22:56;20.80;38.10
19088;DHT22;9676;50.916;13.352;2023-07-08T01:25:45;20.70;38.10
19088;DHT22;9676;50.916;13.352;2023-07-08T01:28:35;20.70;38.20
19088;DHT22;9676;50.916;13.352;2023-07-08T01:31:25;20.70;38.20
19088;DHT22;9676;50.916;13.352;2023-07-08T01:34:15;20.60;38.10
19088;DHT22;9676;50.916;13.352;2023-07-08T01:37:05;20.70;38.40
19088;DHT22;9676;50.916;13.352;2023-07-08T01:39:57;20.60;38.30
19088;DHT22;9676;50.916;13.352;2023-07-08T01:42:46;20.60;38.40
19088;DHT22;9676;50.916;13.352;2023-07-08T01:45:38;20.60;38.40
19088;DHT22;9676;50.916;13.352;2023-07-08T01:48:33;20.60;38.40
19088;DHT22;9676;50.916;13.352;2023-07-08T01:51:25;20.60;38.50
19088;DHT22;9676;50.916;13.352;2023-07-08T01:54:17;20.60;38.40
19088;DHT22;9676;50.916;13.352;2023-07-08T01:57:07;20.60;38.50
19088;DHT22;9676;50.916;13.352;2023-07-08T01:59:57;20.60;38.50
19088;DHT22;9676;50.916;13.352;2023-07-08T02:02:46;20.60;38.50
19088;DHT22;9676;50.916;13.352;2023-07-08T02:05:36;20.60;38.50
19088;DHT22;9676;50.916;13.352;2023-07-08T02:08:25;20.60;38.50
19088;DHT22;9676;50.916;13.352;2023-07-08T02:11:15;20.70;38.60
19088;DHT22;9676;50.916;13.352;2023-07-08T02:14:06;20.70;38.60
19088;DHT22;9676;50.916;13.352;2023-07-08T02:16:55;20.70;38.60
19088;DHT22;9676;50.916;13.352;2023-07-08T02:19:44;20.70;38.70
19088;DHT22;9676;50.916;13.352;2023-07-08T02:22:34;20.80;38.70
19088;DHT22;9676;50.916;13.352;2023-07-08T02:25:24;20.80;38.70
19088;DHT22;9676;50.916;13.352;2023-07-08T02:28:13;20.80;38.70
19088;DHT22;9676;50.916;13.352;2023-07-08T02:31:04;20.90;38.60
19088;DHT22;9676;50.916;13.352;2023-07-08T02:33:54;20.90;38.50
19088;DHT22;9676;50.916;13.352;2023-07-08T02:36:43;20.90;38.50
19088;DHT22;9676;50.916;13.352;2023-07-08T02:39:33;20.90;38.60
19088;DHT22;9676;50.916;13.352;2023-07-08T02:42:22;20.90;38.60
19088;DHT22;9676;50.916;13.352;2023-07-08T02:45:15;20.90;38.60
19088;DHT22;9676;50.916;13.352;2023-07-08T02:48:06;20.90;38.70
19088;DHT22;9676;50.916;13.352;2023-07-08T02:50:59;20.90;38.60
19088;DHT22;9676;50.916;13.352;2023-07-08T02:53:49;21.00;38.80
19088;DHT22;9676;50.916;13.352;2023-07-08T02:56:39;20.90;38.70
19088;DHT22;9676;50.916;13.352;2023-07-08T02:59:28;21.00;38.90
19088;DHT22;9676;50.916;13.352;2023-07-08T03:02:17;21.00;38.80
19088;DHT22;9676;50.916;13.352;2023-07-08T03:05:09;21.00;38.80
19088;DHT22;9676;50.916;13.352;2023-07-08T03:07:58;21.00;38.90
19088;DHT22;9676;50.916;13.352;2023-07-08T03:10:47;21.00;38.80
19088;DHT22;9676;50.916;13.352;2023-07-08T03:13:42;21.00;38.80
19088;DHT22;9676;50.916;13.352;2023-07-08T03:16:32;21.00;38.80
19088;DHT22;9676;50.916;13.352;2023-07-08T03:19:21;21.00;38.90
19088;DHT22;9676;50.916;13.352;2023-07-08T03:22:13;21.00;38.90
19088;DHT22;9676;50.916;13.352;2023-07-08T03:25:04;21.00;38.90
19088;DHT22;9676;50.916;13.352;2023-07-08T03:27:54;21.00;38.90
19088;DHT22;9676;50.916;13.352;2023-07-08T03:30:51;21.00;38.90
19088;DHT22;9676;50.916;13.352;2023-07-08T03:33:41;21.10;39.20
19088;DHT22;9676;50.916;13.352;2023-07-08T03:36:31;21.10;38.90
19088;DHT22;9676;50.916;13.352;2023-07-08T03:39:23;21.10;39.00
19088;DHT22;9676;50.916;13.352;2023-07-08T03:42:13;21.20;39.10
19088;DHT22;9676;50.916;13.352;2023-07-08T03:45:03;21.20;39.10
19088;DHT22;9676;50.916;13.352;2023-07-08T03:47:53;21.20;39.00
19088;DHT22;9676;50.916;13.352;2023-07-08T03:50:43;21.30;39.00
19088;DHT22;9676;50.916;13.352;2023-07-08T03:53:32;21.30;39.00
19088;DHT22;9676;50.916;13.352;2023-07-08T03:56:23;21.40;39.20
19088;DHT22;9676;50.916;13.352;2023-07-08T03:59:13;21.40;39.10
19088;DHT22;9676;50.916;13.352;2023-07-08T04:02:03;21.50;39.20
19088;DHT22;9676;50.916;13.352;2023-07-08T04:04:52;21.50;39.20
19088;DHT22;9676;50.916;13.352;2023-07-08T04:07:43;21.60;39.20
19088;DHT22;9676;50.916;13.352;2023-07-08T04:10:32;21.60;39.20
19088;DHT22;9676;50.916;13.352;2023-07-08T04:13:23;21.70;39.30
19088;DHT22;9676;50.916;13.352;2023-07-08T04:16:16;21.70;39.40
19088;DHT22;9676;50.916;13.352;2023-07-08T04:19:07;21.80;39.50
19088;DHT22;9676;50.916;13.352;2023-07-08T04:22:03;21.90;39.50
19088;DHT22;9676;50.916;13.352;2023-07-08T04:24:53;22.10;39.70
19088;DHT22;9676;50.916;13.352;2023-07-08T04:27:43;22.30;40.20
19088;DHT22;9676;50.916;13.352;2023-07-08T04:30:34;22.60;40.80
19088;DHT22;9676;50.916;13.352;2023-07-08T04:33:28;23.20;41.50
19088;DHT22;9676;50.916;13.352;2023-07-08T04:36:18;23.80;41.90
19088;DHT22;9676;50.916;13.352;2023-07-08T04:39:10;24.50;42.00
19088;DHT22;9676;50.916;13.352;2023-07-08T04:41:59;25.20;41.90
19088;DHT22;9676;50.916;13.352;2023-07-08T04:44:48;25.90;41.70
19088;DHT22;9676;50.916;13.352;2023-07-08T04:47:41;26.60;41.40
19088;DHT22;9676;50.916;13.352;2023-07-08T04:50:31;27.30;41.20
19088;DHT22;9676;50.916;13.352;2023-07-08T04:53:20;27.90;41.00
19088;DHT22;9676;50.916;13.352;2023-07-08T04:56:09;28.60;40.70
19088;DHT22;9676;50.916;13.352;2023-07-08T04:58:59;29.30;40.40
19088;DHT22;9676;50.916;13.352;2023-07-08T05:01:49;29.90;39.90
19088;DHT22;9676;50.916;13.352;2023-07-08T05:04:41;30.50;39.60
19088;DHT22;9676;50.916;13.352;2023-07-08T05:07:30;31.10;39.20
19088;DHT22;9676;50.916;13.352;2023-07-08T05:10:20;31.60;39.00
19088;DHT22;9676;50.916;13.352;2023-07-08T05:13:09;32.10;38.60
19088;DHT22;9676;50.916;13.352;2023-07-08T05:15:59;32.60;38.20
19088;DHT22;9676;50.916;13.352;2023-07-08T05:18:48;33.10;37.90
19088;DHT22;9676;50.916;13.352;2023-07-08T05:21:39;33.60;37.60
19088;DHT22;9676;50.916;13.352;2023-07-08T05:24:29;34.10;37.10
19088;DHT22;9676;50.916;13.352;2023-07-08T05:27:18;34.50;36.70
19088;DHT22;9676;50.916;13.352;2023-07-08T05:30:13;34.90;36.40
19088;DHT22;9676;50.916;13.352;2023-07-08T05:33:03;35.20;35.60
19088;DHT22;9676;50.916;13.352;2023-07-08T05:35:53;35.50;35.50
19088;DHT22;9676;50.916;13.352;2023-07-08T05:38:44;35.90;35.40
19088;DHT22;9676;50.916;13.352;2023-07-08T05:41:33;36.10;35.10
19088;DHT22;9676;50.916;13.352;2023-07-08T05:44:23;36.50;35.20
19088;DHT22;9676;50.916;13.352;2023-07-08T05:47:12;36.90;35.00
19088;DHT22;9676;50.916;13.352;2023-07-08T05:50:03;37.20;34.80
19088;DHT22;9676;50.916;13.352;2023-07-08T05:52:52;37.60;34.60
19088;DHT22;9676;50.916;13.352;2023-07-08T05:55:43;38.00;34.30
19088;DHT22;9676;50.916;13.352;2023-07-08T05:58:33;38.40;33.90
19088;DHT22;9676;50.916;13.352;2023-07-08T06:01:22;38.70;33.60
19088;DHT22;9676;50.916;13.352;2023-07-08T06:04:12;39.00;33.30
19088;DHT22;9676;50.916;13.352;2023-07-08T06:07:01;39.30;32.70
19088;DHT22;9676;50.916;13.352;2023-07-08T06:09:51;39.40;32.30
19088;DHT22;9676;50.916;13.352;2023-07-08T06:12:42;39.60;32.10
19088;DHT22;9676;50.916;13.352;2023-07-08T06:15:31;39.70;31.90
19088;DHT22;9676;50.916;13.352;2023-07-08T06:18:20;39.80;31.50
19088;DHT22;9676;50.916;13.352;2023-07-08T06:21:10;39.90;31.50
19088;DHT22;9676;50.916;13.352;2023-07-08T06:23:59;40.00;31.30
19088;DHT22;9676;50.916;13.352;2023-07-08T06:26:49;40.20;31.30
19088;DHT22;9676;50.916;13.352;2023-07-08T06:29:42;40.40;31.10
19088;DHT22;9676;50.916;13.352;2023-07-08T06:32:32;40.60;31.00
19088;DHT22;9676;50.916;13.352;2023-07-08T06:35:21;40.90;30.90
19088;DHT22;9676;50.916;13.352;2023-07-08T06:38:11;41.10;30.70
19088;DHT22;9676;50.916;13.352;2023-07-08T06:41:01;41.40;30.70
19088;DHT22;9676;50.916;13.352;2023-07-08T06:43:51;41.60;30.40
19088;DHT22;9676;50.916;13.352;2023-07-08T06:46:46;41.80;30.00
19088;DHT22;9676;50.916;13.352;2023-07-08T06:49:35;42.00;29.90
19088;DHT22;9676;50.916;13.352;2023-07-08T06:52:24;42.20;30.00
19088;DHT22;9676;50.916;13.352;2023-07-08T06:55:14;42.50;30.00
19088;DHT22;9676;50.916;13.352;2023-07-08T06:58:03;42.70;29.90
19088;DHT22;9676;50.916;13.352;2023-07-08T07:00:53;43.00;29.80
19088;DHT22;9676;50.916;13.352;2023-07-08T07:03:44;43.40;29.90
19088;DHT22;9676;50.916;13.352;2023-07-08T07:06:34;43.70;29.40
19088;DHT22;9676;50.916;13.352;2023-07-08T07:09:23;44.10;29.20
19088;DHT22;9676;50.916;13.352;2023-07-08T07:12:13;44.40;29.00
19088;DHT22;9676;50.916;13.352;2023-07-08T07:15:03;44.60;28.70
19088;DHT22;9676;50.916;13.352;2023-07-08T07:17:53;44.80;28.50
19088;DHT22;9676;50.916;13.352;2023-07-08T07:20:49;44.90;28.10
19088;DHT22;9676;50.916;13.352;2023-07-08T07:23:39;44.90;27.50
19088;DHT22;9676;50.916;13.352;2023-07-08T07:26:29;44.90;27.60
19088;DHT22;9676;50.916;13.352;2023-07-08T07:29:18;44.80;27.40
19088;DHT22;9676;50.916;13.352;2023-07-08T07:32:10;44.80;27.50
19088;DHT22;9676;50.916;13.352;2023-07-08T07:35:00;44.80;27.70
19088;DHT22;9676;50.916;13.352;2023-07-08T07:37:50;44.80;27.60
19088;DHT22;9676;50.916;13.352;2023-07-08T07:40:40;44.90;27.30
19088;DHT22;9676;50.916;13.352;2023-07-08T07:43:29;45.00;27.20
19088;DHT22;9676;50.916;13.352;2023-07-08T07:46:19;45.10;27.00
19088;DHT22;9676;50.916;13.352;2023-07-08T07:49:08;45.10;26.60
19088;DHT22;9676;50.916;13.352;2023-07-08T07:51:58;45.10;26.40
19088;DHT22;9676;50.916;13.352;2023-07-08T07:54:49;45.10;26.40
19088;DHT22;9676;50.916;13.352;2023-07-08T07:57:38;45.10;26.40
19088;DHT22;9676;50.916;13.352;2023-07-08T08:00:29;45.10;26.20
19088;DHT22;9676;50.916;13.352;2023-07-08T08:03:19;45.20;26.00
19088;DHT22;9676;50.916;13.352;2023-07-08T08:06:09;45.10;25.90
19088;DHT22;9676;50.916;13.352;2023-07-08T08:08:58;45.00;25.90
19088;DHT22;9676;50.916;13.352;2023-07-08T08:11:49;44.90;26.00
19088;DHT22;9676;50.916;13.352;2023-07-08T08:14:39;44.80;25.90
19088;DHT22;9676;50.916;13.352;2023-07-08T08:17:29;44.80;26.00
19088;DHT22;9676;50.916;13.352;2023-07-08T08:20:19;44.90;26.20
19088;DHT22;9676;50.916;13.352;2023-07-08T08:23:09;45.10;26.10
19088;DHT22;9676;50.916;13.352;2023-07-08T08:25:58;45.30;25.90
19088;DHT22;9676;50.916;13.352;2023-07-08T08:28:49;45.50;25.70
19088;DHT22;9676;50.916;13.352;2023-07-08T08:31:39;45.70;25.60
19088;DHT22;9676;50.916;13.352;2023-07-08T08:34:28;46.00;25.60
19088;DHT22;9676;50.916;13.352;2023-07-08T08:37:19;46.30;25.50
19088;DHT22;9676;50.916;13.352;2023-07-08T08:40:13;46.70;25.20
19088;DHT22;9676;50.916;13.352;2023-07-08T08:43:12;46.90;24.60
19088;DHT22;9676;50.916;13.352;2023-07-08T08:46:09;47.10;24.40
19088;DHT22;9676;50.916;13.352;2023-07-08T08:49:08;47.20;23.80
19088;DHT22;9676;50.916;13.352;2023-07-08T08:52:06;47.30;23.70
19088;DHT22;9676;50.916;13.352;2023-07-08T08:54:56;47.30;23.70
19088;DHT22;9676;50.916;13.352;2023-07-08T08:57:51;47.20;23.60
19088;DHT22;9676;50.916;13.352;2023-07-08T09:00:48;47.20;23.40
19088;DHT22;9676;50.916;13.352;2023-07-08T09:03:50;47.00;23.10
19088;DHT22;9676;50.916;13.352;2023-07-08T09:06:41;46.90;22.70
19088;DHT22;9676;50.916;13.352;2023-07-08T09:09:35;46.60;23.00
19088;DHT22;9676;50.916;13.352;2023-07-08T09:12:27;46.40;22.70
19088;DHT22;9676;50.916;13.352;2023-07-08T09:15:18;46.40;23.00
19088;DHT22;9676;50.916;13.352;2023-07-08T09:18:15;46.60;23.30
19088;DHT22;9676;50.916;13.352;2023-07-08T09:21:18;47.00;23.10
19088;DHT22;9676;50.916;13.352;2023-07-08T09:24:15;47.30;22.80
19088;DHT22;9676;50.916;13.352;2023-07-08T09:27:06;47.70;22.90
19088;DHT22;9676;50.916;13.352;2023-07-08T09:29:56;47.90;22.90
19088;DHT22;9676;50.916;13.352;2023-07-08T09:32:46;48.10;22.70
19088;DHT22;9676;50.916;13.352;2023-07-08T09:35:40;48.20;22.60
19088;DHT22;9676;50.916;13.352;2023-07-08T09:38:33;48.40;22.30
19088;DHT22;9676;50.916;13.352;2023-07-08T09:41:31;48.40;22.20
19088;DHT22;9676;50.916;13.352;2023-07-08T09:44:23;48.50;22.00
19088;DHT22;9676;50.916;13.352;2023-07-08T09:47:21;48.60;22.20
19088;DHT22;9676;50.916;13.352;2023-07-08T09:50:20;48.60;21.70
19088;DHT22;9676;50.916;13.352;2023-07-08T09:53:13;48.70;21.60
19088;DHT22;9676;50.916;13.352;2023-07-08T09:56:05;48.70;21.80
19088;DHT22;9676;50.916;13.352;2023-07-08T09:58:57;48.80;21.60
19088;DHT22;9676;50.916;13.352;2023-07-08T10:01:47;48.80;21.40
19088;DHT22;9676;50.916;13.352;2023-07-08T10:04:37;48.60;21.20
19088;DHT22;9676;50.916;13.352;2023-07-08T10:07:29;48.60;21.20
19088;DHT22;9676;50.916;13.352;2023-07-08T10:10:31;48.40;21.20
19088;DHT22;9676;50.916;13.352;2023-07-08T10:13:33;48.00;20.70
19088;DHT22;9676;50.916;13.352;2023-07-08T10:16:28;47.70;20.80
19088;DHT22;9676;50.916;13.352;2023-07-08T10:19:20;47.40;21.10
19088;DHT22;9676;50.916;13.352;2023-07-08T10:22:21;47.20;21.20
19088;DHT22;9676;50.916;13.352;2023-07-08T10:25:24;47.00;20.80
19088;DHT22;9676;50.916;13.352;2023-07-08T10:28:30;46.90;20.50
19088;DHT22;9676;50.916;13.352;2023-07-08T10:31:31;46.60;20.30
19088;DHT22;9676;50.916;13.352;2023-07-08T10:34:32;46.40;20.30
19088;DHT22;9676;50.916;13.352;2023-07-08T10:37:34;46.10;20.40
19088;DHT22;9676;50.916;13.352;2023-07-08T10:40:35;45.90;20.50
19088;DHT22;9676;50.916;13.352;2023-07-08T10:43:46;45.80;20.40
19088;DHT22;9676;50.916;13.352;2023-07-08T10:46:54;45.70;20.50
19088;DHT22;9676;50.916;13.352;2023-07-08T10:49:58;45.80;20.80
19088;DHT22;9676;50.916;13.352;2023-07-08T10:53:00;46.00;20.90
19088;DHT22;9676;50.916;13.352;2023-07-08T10:55:59;46.50;21.10
19088;DHT22;9676;50.916;13.352;2023-07-08T10:59:16;47.10;21.30
19088;DHT22;9676;50.916;13.352;2023-07-08T11:02:24;47.60;20.70
19088;DHT22;9676;50.916;13.352;2023-07-08T11:05:31;48.20;20.70
19088;DHT22;9676;50.916;13.352;2023-07-08T11:08:26;48.70;20.70
19088;DHT22;9676;50.916;13.352;2023-07-08T11:11:29;49.10;20.50
19088;DHT22;9676;50.916;13.352;2023-07-08T11:14:27;49.40;20.00
19088;DHT22;9676;50.916;13.352;2023-07-08T11:17:31;49.40;19.90
19088;DHT22;9676;50.916;13.352;2023-07-08T11:20:26;49.10;19.50
19088;DHT22;9676;50.916;13.352;2023-07-08T11:23:31;48.40;19.10
19088;DHT22;9676;50.916;13.352;2023-07-08T11:26:26;47.60;18.90
19088;DHT22;9676;50.916;13.352;2023-07-08T11:29:19;46.90;19.10
19088;DHT22;9676;50.916;13.352;2023-07-08T11:32:15;46.10;19.00
19088;DHT22;9676;50.916;13.352;2023-07-08T11:35:13;45.40;19.00
19088;DHT22;9676;50.916;13.352;2023-07-08T11:38:08;44.60;19.20
19088;DHT22;9676;50.916;13.352;2023-07-08T11:41:03;43.80;19.20
19088;DHT22;9676;50.916;13.352;2023-07-08T11:43:56;43.20;19.40
19088;DHT22;9676;50.916;13.352;2023-07-08T11:46:54;42.50;19.50
19088;DHT22;9676;50.916;13.352;2023-07-08T11:49:47;41.80;19.60
19088;DHT22;9676;50.916;13.352;2023-07-08T11:52:37;41.10;19.70
19088;DHT22;9676;50.916;13.352;2023-07-08T11:55:37;40.50;19.80
19088;DHT22;9676;50.916;13.352;2023-07-08T11:58:29;39.90;20.00
19088;DHT22;9676;50.916;13.352;2023-07-08T12:01:23;39.40;20.00
19088;DHT22;9676;50.916;13.352;2023-07-08T12:04:24;39.00;20.20
19088;DHT22;9676;50.916;13.352;2023-07-08T12:07:20;38.40;20.40
19088;DHT22;9676;50.916;13.352;2023-07-08T12:10:13;37.90;20.40
19088;DHT22;9676;50.916;13.352;2023-07-08T12:13:10;37.50;20.60
19088;DHT22;9676;50.916;13.352;2023-07-08T12:16:02;37.20;20.80
19088;DHT22;9676;50.916;13.352;2023-07-08T12:18:52;36.90;20.80
19088;DHT22;9676;50.916;13.352;2023-07-08T12:21:42;36.70;21.00
19088;DHT22;9676;50.916;13.352;2023-07-08T12:24:34;36.50;21.20
19088;DHT22;9676;50.916;13.352;2023-07-08T12:27:26;36.30;21.40
19088;DHT22;9676;50.916;13.352;2023-07-08T12:30:16;36.20;21.40
19088;DHT22;9676;50.916;13.352;2023-07-08T12:33:11;36.20;21.40
19088;DHT22;9676;50.916;13.352;2023-07-08T12:36:02;36.20;21.60
19088;DHT22;9676;50.916;13.352;2023-07-08T12:38:54;36.20;21.70
19088;DHT22;9676;50.916;13.352;2023-07-08T12:41:46;36.30;21.90
19088;DHT22;9676;50.916;13.352;2023-07-08T12:44:38;36.30;21.90
19088;DHT22;9676;50.916;13.352;2023-07-08T12:47:31;36.40;22.00
19088;DHT22;9676;50.916;13.352;2023-07-08T12:50:21;36.40;21.90
19088;DHT22;9676;50.916;13.352;2023-07-08T12:53:11;36.50;21.90
19088;DHT22;9676;50.916;13.352;2023-07-08T12:56:01;36.50;21.90
19088;DHT22;9676;50.916;13.352;2023-07-08T12:58:54;36.50;21.90
19088;DHT22;9676;50.916;13.352;2023-07-08T13:01:46;36.50;22.00
19088;DHT22;9676;50.916;13.352;2023-07-08T13:04:37;36.50;22.00
19088;DHT22;9676;50.916;13.352;2023-07-08T13:07:33;36.50;22.00
19088;DHT22;9676;50.916;13.352;2023-07-08T13:10:26;36.50;22.30
19088;DHT22;9676;50.916;13.352;2023-07-08T13:13:20;36.50;22.20
19088;DHT22;9676;50.916;13.352;2023-07-08T13:16:13;36.40;22.30
19088;DHT22;9676;50.916;13.352;2023-07-08T13:19:03;36.30;22.40
19088;DHT22;9676;50.916;13.352;2023-07-08T13:21:53;36.20;22.50
19088;DHT22;9676;50.916;13.352;2023-07-08T13:24:43;36.10;22.60
19088;DHT22;9676;50.916;13.352;2023-07-08T13:27:33;36.00;22.60
19088;DHT22;9676;50.916;13.352;2023-07-08T13:30:25;35.90;22.60
19088;DHT22;9676;50.916;13.352;2023-07-08T13:33:17;35.80;22.70
19088;DHT22;9676;50.916;13.352;2023-07-08T13:36:09;35.70;22.60
19088;DHT22;9676;50.916;13.352;2023-07-08T13:38:59;35.70;22.70
19088;DHT22;9676;50.916;13.352;2023-07-08T13:41:51;35.60;22.70
19088;DHT22;9676;50.916;13.352;2023-07-08T13:44:44;35.60;22.80
19088;DHT22;9676;50.916;13.352;2023-07-08T13:47:35;35.60;22.80
19088;DHT22;9676;50.916;13.352;2023-07-08T13:50:29;35.50;22.70
19088;DHT22;9676;50.916;13.352;2023-07-08T13:53:23;35.50;22.80
19088;DHT22;9676;50.916;13.352;2023-07-08T13:56:19;35.50;22.90
19088;DHT22;9676;50.916;13.352;2023-07-08T13:59:15;35.40;22.80
19088;DHT22;9676;50.916;13.352;2023-07-08T14:02:15;35.30;22.90
19088;DHT22;9676;50.916;13.352;2023-07-08T14:05:10;35.20;23.10
19088;DHT22;9676;50.916;13.352;2023-07-08T14:08:07;35.20;23.10
19088;DHT22;9676;50.916;13.352;2023-07-08T14:11:00;35.10;23.10
19088;DHT22;9676;50.916;13.352;2023-07-08T14:13:50;35.10;23.10
19088;DHT22;9676;50.916;13.352;2023-07-08T14:16:41;35.20;23.20
19088;DHT22;9676;50.916;13.352;2023-07-08T14:19:32;35.10;23.10
19088;DHT22;9676;50.916;13.352;2023-07-08T14:22:23;35.10;23.20
19088;DHT22;9676;50.916;13.352;2023-07-08T14:25:16;35.10;23.20
19088;DHT22;9676;50.916;13.352;2023-07-08T14:28:08;35.10;23.20
19088;DHT22;9676;50.916;13.352;2023-07-08T14:30:58;35.10;23.20
19088;DHT22;9676;50.916;13.352;2023-07-08T14:33:48;35.00;23.10
19088;DHT22;9676;50.916;13.352;2023-07-08T14:36:39;35.00;23.10
19088;DHT22;9676;50.916;13.352;2023-07-08T14:39:28;34.90;23.10
19088;DHT22;9676;50.916;13.352;2023-07-08T14:42:20;34.80;23.20
19088;DHT22;9676;50.916;13.352;2023-07-08T14:45:10;34.80;23.30
19088;DHT22;9676;50.916;13.352;2023-07-08T14:47:59;34.80;23.40
19088;DHT22;9676;50.916;13.352;2023-07-08T14:50:49;34.70;23.30
19088;DHT22;9676;50.916;13.352;2023-07-08T14:53:38;34.70;23.40
19088;DHT22;9676;50.916;13.352;2023-07-08T14:56:28;34.70;23.40
19088;DHT22;9676;50.916;13.352;2023-07-08T14:59:20;34.60;23.40
19088;DHT22;9676;50.916;13.352;2023-07-08T15:02:18;34.70;23.60
19088;DHT22;9676;50.916;13.352;2023-07-08T15:05:14;34.70;23.70
19088;DHT22;9676;50.916;13.352;2023-07-08T15:08:11;34.80;23.70
19088;DHT22;9676;50.916;13.352;2023-07-08T15:11:01;34.80;23.80
19088;DHT22;9676;50.916;13.352;2023-07-08T15:13:53;34.80;23.70
19088;DHT22;9676;50.916;13.352;2023-07-08T15:16:44;34.80;23.70
19088;DHT22;9676;50.916;13.352;2023-07-08T15:19:34;34.90;23.70
19088;DHT22;9676;50.916;13.352;2023-07-08T15:22:23;35.00;23.80
19088;DHT22;9676;50.916;13.352;2023-07-08T15:25:14;35.00;23.80
19088;DHT22;9676;50.916;13.352;2023-07-08T15:28:04;35.10;23.80
19088;DHT22;9676;50.916;13.352;2023-07-08T15:30:54;35.20;23.80
19088;DHT22;9676;50.916;13.352;2023-07-08T15:33:45;35.30;23.80
19088;DHT22;9676;50.916;13.352;2023-07-08T15:36:34;35.40;23.80
19088;DHT22;9676;50.916;13.352;2023-07-08T15:39:23;35.50;23.70
19088;DHT22;9676;50.916;13.352;2023-07-08T15:42:13;35.60;23.70
19088;DHT22;9676;50.916;13.352;2023-07-08T15:45:11;35.60;23.70
19088;DHT22;9676;50.916;13.352;2023-07-08T15:48:03;35.70;23.70
19088;DHT22;9676;50.916;13.352;2023-07-08T15:50:54;35.70;23.60
19088;DHT22;9676;50.916;13.352;2023-07-08T15:53:43;35.80;23.60
19088;DHT22;9676;50.916;13.352;2023-07-08T15:56:33;35.80;23.60
19088;DHT22;9676;50.916;13.352;2023-07-08T15:59:25;35.80;23.70
19088;DHT22;9676;50.916;13.352;2023-07-08T16:02:25;35.80;23.90
19088;DHT22;9676;50.916;13.352;2023-07-08T16:05:17;35.80;24.20
19088;DHT22;9676;50.916;13.352;2023-07-08T16:08:08;35.80;24.10
19088;DHT22;9676;50.916;13.352;2023-07-08T16:11:00;35.80;24.10
19088;DHT22;9676;50.916;13.352;2023-07-08T16:13:52;35.80;24.10
19088;DHT22;9676;50.916;13.352;2023-07-08T16:16:42;35.80;24.10
19088;DHT22;9676;50.916;13.352;2023-07-08T16:19:31;35.70;24.10
19088;DHT22;9676;50.916;13.352;2023-07-08T16:22:21;35.70;24.00
19088;DHT22;9676;50.916;13.352;2023-07-08T16:25:13;35.70;24.00
19088;DHT22;9676;50.916;13.352;2023-07-08T16:28:03;35.70;24.00
19088;DHT22;9676;50.916;13.352;2023-07-08T16:30:54;35.60;23.80
19088;DHT22;9676;50.916;13.352;2023-07-08T16:33:44;35.50;23.70
19088;DHT22;9676;50.916;13.352;2023-07-08T16:36:34;35.40;23.70
19088;DHT22;9676;50.916;13.352;2023-07-08T16:39:24;35.30;23.70
19088;DHT22;9676;50.916;13.352;2023-07-08T16:42:15;35.20;23.80
19088;DHT22;9676;50.916;13.352;2023-07-08T16:45:08;35.10;23.80
19088;DHT22;9676;50.916;13.352;2023-07-08T16:48:01;35.00;24.00
19088;DHT22;9676;50.916;13.352;2023-07-08T16:50:50;34.80;24.10
19088;DHT22;9676;50.916;13.352;2023-07-08T16:53:40;34.60;24.10
19088;DHT22;9676;50.916;13.352;2023-07-08T16:56:30;34.50;24.20
19088;DHT22;9676;50.916;13.352;2023-07-08T16:59:20;34.40;24.40
19088;DHT22;9676;50.916;13.352;2023-07-08T17:02:12;34.20;24.40
19088;DHT22;9676;50.916;13.352;2023-07-08T17:05:16;34.10;24.40
19088;DHT22;9676;50.916;13.352;2023-07-08T17:08:12;34.00;24.70
19088;DHT22;9676;50.916;13.352;2023-07-08T17:11:02;33.90;24.60
19088;DHT22;9676;50.916;13.352;2023-07-08T17:13:51;33.90;24.70
19088;DHT22;9676;50.916;13.352;2023-07-08T17:16:42;33.80;24.80
19088;DHT22;9676;50.916;13.352;2023-07-08T17:19:32;33.70;24.90
19088;DHT22;9676;50.916;13.352;2023-07-08T17:22:22;33.60;24.90
19088;DHT22;9676;50.916;13.352;2023-07-08T17:25:17;33.50;24.90
19088;DHT22;9676;50.916;13.352;2023-07-08T17:28:07;33.50;25.10
19088;DHT22;9676;50.916;13.352;2023-07-08T17:30:57;33.40;25.00
19088;DHT22;9676;50.916;13.352;2023-07-08T17:33:51;33.40;25.10
19088;DHT22;9676;50.916;13.352;2023-07-08T17:36:43;33.40;25.20
19088;DHT22;9676;50.916;13.352;2023-07-08T17:39:33;33.30;25.20
19088;DHT22;9676;50.916;13.352;2023-07-08T17:42:22;33.30;25.20
19088;DHT22;9676;50.916;13.352;2023-07-08T17:45:13;33.20;25.20
19088;DHT22;9676;50.916;13.352;2023-07-08T17:48:04;33.20;25.30
19088;DHT22;9676;50.916;13.352;2023-07-08T17:51:13;33.10;25.20
19088;DHT22;9676;50.916;13.352;2023-07-08T17:54:02;33.00;25.30
19088;DHT22;9676;50.916;13.352;2023-07-08T17:56:52;33.00;25.40
19088;DHT22;9676;50.916;13.352;2023-07-08T17:59:43;32.80;25.40
19088;DHT22;9676;50.916;13.352;2023-07-08T18:02:32;32.70;25.40
19088;DHT22;9676;50.916;13.352;2023-07-08T18:05:23;32.60;25.50
19088;DHT22;9676;50.916;13.352;2023-07-08T18:08:15;32.50;25.60